createdAt,value
2019-02-08T05:21:44.681Z,79.64
2019-02-08T05:26:43.709Z,80.35
2019-02-08T05:31:42.708Z,80.90
2019-02-08T05:36:42.689Z,81.76
2019-02-08T05:41:41.755Z,82.12
2019-02-08T05:46:42.936Z,82.57
2019-02-08T05:51:42.719Z,81.44
2019-02-08T05:56:42.678Z,81.49
2019-02-08T06:01:42.778Z,81.53
2019-02-08T06:06:42.738Z,81.47
2019-02-08T06:11:42.699Z,81.55
2019-02-08T06:16:42.744Z,81.90
2019-02-08T06:21:42.800Z,82.04
2019-02-08T06:26:41.682Z,81.49
2019-02-08T06:31:42.825Z,81.18
2019-02-08T06:36:41.828Z,81.10
2019-02-08T06:41:40.937Z,80.49
2019-02-08T06:46:40.805Z,80.57
2019-02-08T06:51:40.735Z,80.02
2019-02-08T06:56:39.752Z,80.39
2019-02-08T07:01:39.021Z,80.08
2019-02-08T07:06:38.058Z,79.81
2019-02-08T07:11:37.705Z,80.32
2019-02-08T07:16:38.897Z,79.18
2019-02-08T07:21:37.803Z,79.32
2019-02-08T07:26:37.732Z,79.18
2019-02-08T07:31:36.758Z,78.60
2019-02-08T07:36:36.847Z,78.91
2019-02-08T07:41:36.126Z,78.72
2019-02-08T07:46:35.735Z,78.80
2019-02-08T07:51:34.782Z,78.77
2019-02-08T07:56:35.761Z,78.50
2019-02-08T08:01:35.716Z,78.17
2019-02-08T08:06:35.857Z,77.41
2019-02-08T08:11:34.698Z,77.27
2019-02-08T08:16:34.835Z,77.38
2019-02-08T08:21:34.718Z,77.89
2019-02-08T08:26:33.973Z,77.61
2019-02-08T08:31:34.767Z,77.16
2019-02-08T08:36:34.893Z,77.55
2019-02-08T08:41:34.841Z,77.66
2019-02-08T08:46:34.802Z,76.98
2019-02-08T08:51:34.747Z,76.58
2019-02-08T08:56:34.815Z,76.79
2019-02-08T09:01:33.795Z,77.32
2019-02-08T09:06:32.836Z,77.01
2019-02-08T09:11:31.778Z,77.15
2019-02-08T09:16:32.378Z,76.61
2019-02-08T09:21:30.823Z,76.24
2019-02-08T09:26:29.950Z,75.37
2019-02-08T09:31:29.755Z,75.57
2019-02-08T09:36:29.234Z,75.59
2019-02-08T09:41:28.748Z,75.50
2019-02-08T09:46:29.284Z,75.14
2019-02-08T09:51:27.711Z,75.50
2019-02-08T09:56:27.775Z,74.37
2019-02-08T10:01:26.807Z,74.92
2019-02-08T10:06:26.002Z,74.14
2019-02-08T10:11:26.795Z,74.30
2019-02-08T10:16:26.781Z,73.61
2019-02-08T10:26:25.228Z,72.91
2019-02-08T10:31:26.024Z,73.30
2019-02-08T10:36:24.751Z,72.81
2019-02-08T10:41:30.471Z,73.85
2019-02-08T10:46:21.826Z,73.09
2019-02-08T10:51:21.969Z,72.88
2019-02-08T10:56:21.179Z,73.80
2019-02-08T11:01:20.754Z,74.53
2019-02-08T11:06:19.929Z,72.84
2019-02-08T11:11:19.151Z,73.18
2019-02-08T11:16:19.124Z,73.43
2019-02-08T11:21:18.156Z,73.90
2019-02-08T11:26:22.544Z,73.09
2019-02-08T11:31:15.761Z,73.20
2019-02-08T11:36:15.989Z,72.17
2019-02-08T11:41:15.784Z,72.21
2019-02-08T11:46:16.023Z,71.73
2019-02-08T11:51:15.107Z,72.03
2019-02-08T11:56:14.839Z,71.76
2019-02-08T12:01:13.859Z,71.88
2019-02-08T12:06:14.811Z,71.44
2019-02-08T12:11:14.782Z,70.85
2019-02-08T12:16:14.886Z,71.38
2019-02-08T12:21:14.143Z,71.42
2019-02-08T12:26:15.226Z,71.24
2019-02-08T12:31:14.241Z,71.11
2019-02-08T12:36:13.786Z,71.20
2019-02-08T12:41:13.942Z,71.04
2019-02-08T12:46:13.822Z,71.67
2019-02-08T12:51:14.029Z,71.17
2019-02-08T12:56:13.732Z,71.12
2019-02-08T13:01:12.792Z,71.84
2019-02-08T13:06:11.824Z,71.80
2019-02-08T13:11:11.056Z,71.49
2019-02-08T13:16:09.955Z,72.19
2019-02-08T13:21:08.786Z,71.82
2019-02-08T13:26:08.864Z,71.30
2019-02-08T13:31:08.868Z,71.24
2019-02-08T13:36:08.826Z,71.61
2019-02-08T13:41:07.819Z,71.63
2019-02-08T13:46:08.041Z,71.47
2019-02-08T13:51:06.907Z,71.19
2019-02-08T13:56:06.759Z,71.14
2019-02-08T14:01:06.799Z,70.90
2019-02-08T14:06:07.072Z,71.31
2019-02-08T14:11:05.779Z,71.65
2019-02-08T14:16:05.104Z,71.43
2019-02-08T14:21:05.995Z,71.52
2019-02-08T14:26:05.992Z,71.89
2019-02-08T14:31:05.220Z,72.24
2019-02-08T14:36:05.020Z,72.01
2019-02-08T14:41:05.982Z,71.69
2019-02-08T14:46:05.113Z,73.03
2019-02-08T14:51:04.773Z,72.07
2019-02-08T14:56:03.779Z,73.26
2019-02-08T15:01:03.790Z,73.04
2019-02-08T15:06:04.081Z,73.01
2019-02-08T15:11:03.910Z,73.02
2019-02-08T15:16:02.890Z,73.78
2019-02-08T15:21:02.022Z,73.70
2019-02-08T15:26:00.988Z,73.13
2019-02-08T15:31:00.098Z,73.66
2019-02-08T15:35:59.790Z,73.43
2019-02-08T15:40:58.800Z,74.01
2019-02-08T15:45:59.256Z,73.55
2019-02-08T15:50:58.118Z,73.69
2019-02-08T15:55:57.821Z,73.84
2019-02-08T16:00:58.001Z,73.36
2019-02-08T16:05:57.176Z,73.08
2019-02-08T16:10:56.889Z,73.20
2019-02-08T16:15:56.802Z,73.44
2019-02-08T16:20:56.088Z,72.80
2019-02-08T16:25:55.812Z,73.19
2019-02-08T16:30:54.824Z,73.39
2019-02-08T16:35:55.839Z,73.14
2019-02-08T16:40:56.227Z,73.41
2019-02-08T16:45:54.808Z,73.44
2019-02-08T16:50:54.837Z,73.18
2019-02-08T16:55:55.113Z,73.43
2019-02-08T17:00:53.886Z,73.54
2019-02-08T17:05:54.106Z,74.55
2019-02-08T17:10:53.835Z,74.07
2019-02-08T17:15:52.971Z,74.28
2019-02-08T17:20:53.837Z,74.30
2019-02-08T17:25:53.857Z,73.83
2019-02-08T17:30:54.172Z,74.05
2019-02-08T17:35:53.864Z,74.69
2019-02-08T17:40:53.073Z,73.80
2019-02-08T17:45:51.996Z,73.33
2019-02-08T17:50:51.835Z,73.91
2019-02-08T17:55:52.051Z,73.89
2019-02-08T18:00:52.889Z,72.43
2019-02-08T18:10:52.887Z,72.77
2019-02-08T18:15:52.836Z,72.35
2019-02-08T18:20:52.898Z,72.54
2019-02-08T18:25:52.904Z,72.37
2019-02-08T18:30:52.841Z,72.39
2019-02-08T18:35:52.889Z,72.52
2019-02-08T18:40:52.853Z,71.84
2019-02-08T18:45:52.013Z,72.03
2019-02-08T18:50:51.870Z,71.83
2019-02-08T18:55:51.150Z,71.65
2019-02-08T19:05:50.849Z,72.31
2019-02-08T19:10:50.861Z,73.17
2019-02-08T19:15:49.962Z,72.83
2019-02-08T19:20:50.032Z,72.36
2019-02-08T19:25:48.961Z,72.88
2019-02-08T19:30:47.945Z,72.52
2019-02-08T19:35:46.867Z,72.17
2019-02-08T19:40:45.871Z,71.80
2019-02-08T19:45:44.902Z,71.52
2019-02-08T19:50:43.917Z,71.84
2019-02-08T19:55:43.860Z,72.08
2019-02-08T20:00:43.083Z,71.98
2019-02-08T20:05:41.998Z,72.55
2019-02-08T20:10:42.853Z,71.56
2019-02-08T20:15:42.196Z,71.56
2019-02-08T20:20:42.882Z,70.75
2019-02-08T20:25:42.901Z,70.99
2019-02-08T20:30:43.210Z,70.97
2019-02-08T20:35:41.816Z,70.71
2019-02-08T20:40:41.888Z,70.85
2019-02-08T20:45:41.019Z,71.26
2019-02-08T20:50:39.931Z,71.17
2019-02-08T20:55:38.844Z,70.51
2019-02-08T21:00:39.027Z,70.88
2019-02-08T21:05:38.846Z,71.14
2019-02-08T21:10:39.860Z,71.55
2019-02-08T21:15:39.233Z,71.31
2019-02-08T21:20:39.216Z,71.85
2019-02-08T21:25:38.959Z,71.34
2019-02-08T21:30:38.368Z,71.04
2019-02-08T21:35:37.153Z,72.16
2019-02-08T21:40:35.893Z,71.98
2019-02-08T21:45:35.934Z,71.80
2019-02-08T21:50:37.070Z,71.18
2019-02-08T21:55:36.818Z,71.40
2019-02-08T22:00:38.012Z,71.61
2019-02-08T22:05:37.896Z,71.41
2019-02-08T22:10:37.907Z,71.71
2019-02-08T22:15:38.015Z,70.87
2019-02-08T22:20:38.852Z,70.64
2019-02-08T22:25:39.008Z,70.29
2019-02-08T22:30:37.860Z,71.29
2019-02-08T22:35:36.793Z,70.29
2019-02-08T22:40:35.863Z,70.77
2019-02-08T22:45:34.837Z,71.04
2019-02-08T22:50:35.019Z,71.27
2019-02-08T22:55:34.857Z,70.34
2019-02-08T23:00:34.843Z,69.55
2019-02-08T23:05:34.806Z,69.47
2019-02-08T23:10:33.839Z,69.79
2019-02-08T23:15:33.246Z,73.53
2019-02-08T23:20:33.807Z,77.04
2019-02-08T23:25:32.921Z,78.76
2019-02-08T23:30:32.841Z,79.98
2019-02-08T23:35:32.863Z,80.15
2019-02-08T23:40:32.880Z,79.40
2019-02-08T23:45:31.828Z,80.18
2019-02-08T23:50:30.885Z,79.60
2019-02-08T23:55:30.895Z,79.42
